»·PEaware :: AAL1228 KLAX-KLAS

AAL1228 :: KLAX-KLAS

FLIGHT INFORMATION

Flight Status: Arrived
Operator:
American Airlines
More flights by this operator :: More flights under this callsign
Pilot: Michael M. (12217)
Aircraft: BOEING 737-800
(B738)
More flights by this aircraft type
Origin: KLAX Los Angeles Intl
United States
Destination: KLAS McCarran Intl
United States
More flights between these airports :: More routes between these airports
Route: +ORCKA2 MISEN KEPEC6
File this flight plan on PilotEdge
Remarks:
Altitude:
(Current/Filed)
35,000ft
Speed:
(Current/Filed)
410kts
Departed: 16-Feb-18 06:52 PM
Arrived: 16-Feb-18 08:18 PM
Distance/Time
Traveled:
205nm/1:26
Distance/Time
To Go:
Arrived

Flight Plot

Page will automatically refresh every two minutes.

Flight plan parsing failed; only flown route is shown


Map Options




Map Legend


Flown Route
Filed Route
Departure Airport
Arrival Airport
Navaid (VOR, NDB)
Fix

Horizontal Profiles

Position Reports

Time Latitude Longitude Heading Altitude Ground
Speed
16-Feb-18 18:15 33.947209 -118.404462 154 133ft 0kts
16-Feb-18 18:16 33.947209 -118.404462 154 133ft 0kts
16-Feb-18 18:17 33.947209 -118.404462 154 133ft 0kts
16-Feb-18 18:18 33.947209 -118.404462 154 133ft 0kts
16-Feb-18 18:19 33.947209 -118.404462 154 133ft 0kts
16-Feb-18 18:20 33.947209 -118.404462 154 133ft 0kts
16-Feb-18 18:21 33.947209 -118.404462 154 133ft 0kts
16-Feb-18 18:22 33.947209 -118.404462 154 133ft 0kts
16-Feb-18 18:23 33.947209 -118.404462 154 133ft 0kts
16-Feb-18 18:24 33.947209 -118.404462 154 133ft 0kts
16-Feb-18 18:25 33.947209 -118.404462 154 133ft 0kts
16-Feb-18 18:26 33.947209 -118.404462 154 133ft 0kts
16-Feb-18 18:27 33.947209 -118.404462 154 133ft 0kts
16-Feb-18 18:28 33.947209 -118.404462 154 133ft 0kts
16-Feb-18 18:29 33.947209 -118.404462 154 133ft 0kts
16-Feb-18 18:30 33.947209 -118.404462 154 133ft 0kts
16-Feb-18 18:31 33.947209 -118.404462 154 133ft 0kts
16-Feb-18 18:32 33.947209 -118.404462 154 133ft 0kts
16-Feb-18 18:36 33.947210 -118.404462 153 133ft 0kts
16-Feb-18 18:37 33.947210 -118.404462 153 133ft 0kts
16-Feb-18 18:38 33.947210 -118.404462 153 133ft 0kts
16-Feb-18 18:39 33.947210 -118.404462 153 133ft 0kts
16-Feb-18 18:40 33.947210 -118.404462 153 133ft 0kts
16-Feb-18 18:41 33.947210 -118.404462 153 133ft 0kts
16-Feb-18 18:42 33.947210 -118.404462 153 133ft 0kts
16-Feb-18 18:43 33.947210 -118.404462 153 133ft 0kts
16-Feb-18 18:44 33.947210 -118.404462 153 133ft 0kts
16-Feb-18 18:45 33.947210 -118.404462 153 133ft 0kts
16-Feb-18 18:46 33.947210 -118.404462 153 133ft 0kts
16-Feb-18 18:47 33.947210 -118.404462 153 133ft 0kts
16-Feb-18 18:48 33.947210 -118.404462 153 133ft 0kts
16-Feb-18 18:49 33.947210 -118.404462 153 133ft 0kts
16-Feb-18 18:50 33.947210 -118.404462 153 133ft 0kts
16-Feb-18 18:51 33.947409 -118.404549 159 133ft 2kts
16-Feb-18 18:52 33.947872 -118.404755 144 133ft 1kts
16-Feb-18 18:53 33.947896 -118.404937 77 133ft 0kts
16-Feb-18 18:54 33.947896 -118.404937 77 133ft 0kts
16-Feb-18 18:55 33.947941 -118.404695 76 133ft 5kts
16-Feb-18 18:56 33.948838 -118.402795 37 133ft 10kts
16-Feb-18 18:57 33.949321 -118.401345 297 133ft 3kts
16-Feb-18 18:58 33.949359 -118.401459 292 133ft 0kts
16-Feb-18 18:59 33.949912 -118.404104 262 133ft 46kts
16-Feb-18 19:00 33.940701 -118.450307 227 2189ft 202kts
16-Feb-18 19:01 33.889895 -118.483370 278 5866ft 240kts
16-Feb-18 19:02 33.892264 -118.569961 262 8365ft 273kts
16-Feb-18 19:03 33.881419 -118.660668 278 11363ft 296kts
16-Feb-18 19:04 33.948329 -118.690735 36 14739ft 322kts
16-Feb-18 19:05 33.965094 -118.587443 92 14972ft 337kts
16-Feb-18 19:06 33.956383 -118.475199 92 14971ft 336kts
16-Feb-18 19:07 33.972220 -118.369221 56 14975ft 328kts
16-Feb-18 19:08 34.019865 -118.277916 53 17696ft 342kts
16-Feb-18 19:09 34.074179 -118.183454 55 21069ft 358kts
16-Feb-18 19:10 34.129839 -118.085065 55 23127ft 373kts
16-Feb-18 19:11 34.188226 -117.981406 53 23214ft 384kts
16-Feb-18 19:12 34.249003 -117.873230 53 26107ft 398kts
16-Feb-18 19:13 34.310884 -117.762674 53 28597ft 402kts
16-Feb-18 19:14 34.374617 -117.650845 51 30597ft 410kts
16-Feb-18 19:15 34.441699 -117.539093 52 31185ft 411kts
16-Feb-18 19:16 34.507824 -117.428013 51 29352ft 411kts
16-Feb-18 19:17 34.573530 -117.317271 52 29183ft 408kts
16-Feb-18 19:18 34.639502 -117.205723 52 29182ft 408kts
16-Feb-18 19:19 34.705541 -117.093688 52 29182ft 408kts
16-Feb-18 19:20 34.771165 -116.981997 51 29176ft 408kts
16-Feb-18 19:21 34.836823 -116.869896 51 29156ft 407kts
16-Feb-18 19:22 34.904718 -116.753673 51 29157ft 434kts
16-Feb-18 19:23 34.973057 -116.633678 52 29156ft 431kts
16-Feb-18 19:24 35.024681 -116.504191 84 29185ft 440kts
16-Feb-18 19:25 35.004638 -116.356778 101 29184ft 443kts
16-Feb-18 19:26 34.978780 -116.210922 101 29181ft 443kts
16-Feb-18 19:27 34.952765 -116.064258 101 29181ft 443kts
16-Feb-18 19:28 34.926871 -115.917993 101 29182ft 443kts
16-Feb-18 19:29 34.900930 -115.771676 101 29176ft 443kts
16-Feb-18 19:30 34.874929 -115.624847 101 29157ft 443kts
16-Feb-18 19:31 34.848968 -115.478340 100 29157ft 443kts
16-Feb-18 19:32 34.823210 -115.332879 101 29155ft 443kts
16-Feb-18 19:33 34.797359 -115.186738 101 29154ft 443kts
16-Feb-18 19:34 34.771455 -115.040095 101 29155ft 443kts
16-Feb-18 19:35 34.745679 -114.894181 101 29156ft 443kts
16-Feb-18 19:36 34.719777 -114.747349 100 29156ft 443kts
16-Feb-18 19:37 34.714547 -114.625491 70 29159ft 436kts
16-Feb-18 19:38 34.811712 -114.519497 5 29160ft 411kts
16-Feb-18 19:39 34.899068 -114.547990 319 29160ft 398kts
16-Feb-18 19:40 34.969394 -114.650506 293 29160ft 397kts
16-Feb-18 19:41 34.958668 -114.780247 238 28260ft 409kts
16-Feb-18 19:42 34.865526 -114.859771 210 26947ft 416kts
16-Feb-18 19:43 34.773864 -114.938587 240 25433ft 398kts
16-Feb-18 19:44 34.768090 -115.062297 300 24168ft 371kts
16-Feb-18 19:45 34.848113 -115.136599 332 24154ft 369kts
16-Feb-18 19:46 34.938656 -115.195421 332 24154ft 369kts
16-Feb-18 19:47 35.029628 -115.254647 332 24150ft 369kts
16-Feb-18 19:48 35.119192 -115.313100 332 24145ft 366kts
16-Feb-18 19:49 35.207648 -115.370895 330 22688ft 348kts
16-Feb-18 19:50 35.290545 -115.425179 329 20864ft 336kts
16-Feb-18 19:51 35.361711 -115.491964 285 18971ft 322kts
16-Feb-18 19:52 35.385355 -115.599702 281 17079ft 331kts
16-Feb-18 19:53 35.405991 -115.705008 281 15568ft 325kts
16-Feb-18 19:54 35.433094 -115.807129 315 14363ft 309kts
16-Feb-18 19:55 35.506680 -115.822110 30 13206ft 279kts
16-Feb-18 19:56 35.570152 -115.769478 33 12991ft 277kts
16-Feb-18 19:57 35.633687 -115.715515 32 12990ft 277kts
16-Feb-18 19:58 35.704488 -115.725560 314 12996ft 289kts
16-Feb-18 19:59 35.710374 -115.829042 241 12991ft 344kts
16-Feb-18 20:00 35.630635 -115.881178 172 12998ft 342kts
16-Feb-18 20:01 35.563460 -115.812527 101 13017ft 325kts
16-Feb-18 20:02 35.593192 -115.718069 33 13043ft 313kts
16-Feb-18 20:03 35.666523 -115.660362 31 13165ft 313kts
16-Feb-18 20:04 35.740036 -115.603156 31 13287ft 314kts
16-Feb-18 20:05 35.813712 -115.545696 31 12784ft 311kts
16-Feb-18 20:06 35.888004 -115.487363 30 12130ft 327kts
16-Feb-18 20:07 35.962430 -115.513569 288 12489ft 330kts
16-Feb-18 20:08 35.916055 -115.591096 177 12491ft 339kts
16-Feb-18 20:09 35.872092 -115.512301 65 12478ft 317kts
16-Feb-18 20:10 35.946951 -115.454161 23 12465ft 326kts
16-Feb-18 20:11 36.015461 -115.396269 54 11536ft 302kts
16-Feb-18 20:12 36.023922 -115.300197 90 10982ft 272kts
16-Feb-18 20:13 36.018823 -115.215246 91 10980ft 232kts
16-Feb-18 20:14 36.013663 -115.138230 91 11015ft 229kts
16-Feb-18 20:15 36.008430 -115.060134 91 11017ft 228kts
16-Feb-18 20:16 36.003265 -114.982744 91 11016ft 228kts
16-Feb-18 20:17 35.998127 -114.904533 92 10860ft 235kts
16-Feb-18 20:18 35.995530 -114.812614 79 8552ft 285kts
16-Feb-18 20:19 36.051151 -114.779061 3 7700ft 222kts
16-Feb-18 20:20 36.082768 -114.830695 271 5786ft 232kts
16-Feb-18 20:21 36.083235 -114.905109 264 5005ft 192kts
16-Feb-18 20:22 36.076528 -114.970749 263 5018ft 196kts
16-Feb-18 20:23 36.070609 -115.037057 271 4139ft 191kts
16-Feb-18 20:24 36.073663 -115.095076 270 2958ft 147kts
16-Feb-18 20:25 36.073687 -115.135304 277 2149ft 32kts
16-Feb-18 20:26 36.074574 -115.145604 300 2149ft 0kts
16-Feb-18 20:27 36.074692 -115.145852 300 2149ft 2kts
16-Feb-18 20:28 36.074827 -115.146103 306 2149ft 5kts
16-Feb-18 20:29 36.077135 -115.146554 0 2149ft 2kts
16-Feb-18 20:30 36.079516 -115.146785 44 2149ft 7kts

Navigation Log

Ident Type
Flight plan parsing failed, navigation log unavailable